Latest Coastal Weather Observations for Frankston

IDV60701

Issued at 6:15 am EDT Saturday 22 November 2014 (issued every 10 minutes, with the page automatically refreshed every 10 minutes)

About coastal observations | Map of coastal stations | Coastal observations for VIC | Marine services | Other Formats
Station Details ID: 086371 Name: FRANKSTON AWS Lat: -38.15 Lon: 145.12 Height: 6.0 m
Data from the previous 72 hours. | See also: Recent months at Frankston
Date/Time
EDT
Temp

°C
Wind Pressure Rain
since 9am
mm
Weather Cloud Vis
km
Sea
Height
m
Swell
Dir
 
Speed
knots
Gust
knots
hPa Trend Height
m
Period
s
Dir
22/06:00am 12.9 E 3 6 - - - - - - - - - -
22/05:30am 12.8 E 4 6 - - - - - - - - - -
22/05:00am 12.9 E 2 4 - - - - - - - - - -
22/04:30am 12.9 E 3 4 - - - - - - - - - -
22/04:00am 12.9 E 3 5 - - - - - - - - - -
22/03:30am 13.1 E 2 4 - - - - - - - - - -
22/03:00am 13.2 E 3 5 - - - - - - - - - -
22/02:30am 13.7 ENE 2 4 - - - - - - - - - -
22/02:00am 13.6 SE 4 8 - - - - - - - - - -
22/01:30am 13.8 SE 5 9 - - - - - - - - - -
22/01:00am 13.8 SE 6 8 - - - - - - - - - -
22/12:30am 13.9 ESE 5 8 - - - - - - - - - -
22/12:00am 13.9 SE 5 9 - - - - - - - - - -
 
Date/Time
EDT
Temp

°C
Wind Pressure Rain
since 9am
mm
Weather Cloud Vis
km
Sea
Height
m
Swell
Dir
 
Speed
knots
Gust
knots
hPa Trend Height
m
Period
s
Dir
21/11:30pm 14.1 SE 5 12 - - - - - - - - - -
21/11:00pm 14.2 SE 5 10 - - - - - - - - - -
21/10:30pm 14.3 SE 7 11 - - - - - - - - - -
21/10:00pm 14.4 SSE 7 12 - - - - - - - - - -
21/09:30pm 14.8 SSE 7 13 - - - - - - - - - -
21/09:00pm 15.3 SSE 8 12 - - - - - - - - - -
21/08:30pm 15.7 SSE 7 11 - - - - - - - - - -
21/08:00pm 16.5 SE 6 12 - - - - - - - - - -
21/07:30pm 17.4 SE 6 11 - - - - - - - - - -
21/07:00pm 17.9 SSE 6 13 - - - - - - - - - -
21/06:30pm 18.7 SE 7 12 - - - - - - - - - -
21/06:00pm 19.4 ESE 7 12 - - - - - - - - - -
21/05:30pm 17.5 W 8 9 - - - - - - - - - -
21/05:00pm 17.3 W 9 10 - - - - - - - - - -
21/04:30pm 17.1 WSW 10 11 - - - - - - - - - -
21/04:00pm 16.9 W 9 10 - - - - - - - - - -
21/03:30pm 16.5 W 9 11 - - - - - - - - - -
21/03:00pm 16.7 W 4 5 - - - - - - - - - -
21/02:30pm 16.7 NW 3 4 - - - - - - - - - -
21/02:00pm 16.4 W 2 3 - - - - - - - - - -
21/01:30pm 16.1 W 3 4 - - - - - - - - - -
21/01:00pm 15.9 WSW 3 4 - - - - - - - - - -
21/12:30pm 15.7 W 5 7 - - - - - - - - - -
21/12:00pm 15.4 WSW 6 8 - - - - - - - - - -
21/11:30am 15.4 WSW 11 13 - - - - - - - - - -
21/11:00am 15.6 WSW 10 12 - - - - - - - - - -
21/10:30am 15.4 WSW 9 12 - - - - - - - - - -
21/10:00am 15.4 W 7 9 - - - - - - - - - -
21/09:30am 15.5 WSW 13 16 - - - - - - - - - -
21/09:00am 15.7 WSW 13 15 - - - - - - - - - -
21/08:30am 15.4 WSW 16 19 - - - - - - - - - -
21/08:00am 15.1 WSW 16 20 - - - - - - - - - -
21/07:30am 15.2 WSW 12 15 - - - - - - - - - -
21/07:00am 16.2 W 13 17 - - - - - - - - - -
21/06:30am 16.5 WNW 13 16 - - - - - - - - - -
21/06:00am 16.6 W 13 16 - - - - - - - - - -
21/05:30am 16.6 W 14 16 - - - - - - - - - -
21/05:00am 16.6 W 12 17 - - - - - - - - - -
21/04:30am 16.9 WSW 13 15 - - - - - - - - - -
21/04:00am 16.8 SW 10 13 - - - - - - - - - -
21/03:30am 16.6 SW 10 14 - - - - - - - - - -
21/03:00am 17.4 SW 9 13 - - - - - - - - - -
21/02:30am 18.1 WSW 12 15 - - - - - - - - - -
21/02:00am 19.6 NNW 8 11 - - - - - - - - - -
21/01:30am 19.2 N 8 10 - - - - - - - - - -
21/01:00am 19.4 N 8 9 - - - - - - - - - -
21/12:30am 19.5 N 6 7 - - - - - - - - - -
21/12:00am 18.7 NNE 3 4 - - - - - - - - - -
 
Date/Time
EDT
Temp

°C
Wind Pressure Rain
since 9am
mm
Weather Cloud Vis
km
Sea
Height
m
Swell
Dir
 
Speed
knots
Gust
knots
hPa Trend Height
m
Period
s
Dir
20/11:30pm 19.6 N 6 8 - - - - - - - - - -
20/11:00pm 19.8 N 10 12 - - - - - - - - - -
20/10:30pm 19.7 NNE 10 13 - - - - - - - - - -
20/10:00pm 19.7 N 10 12 - - - - - - - - - -
20/09:30pm 19.4 NE 7 10 - - - - - - - - - -
20/09:00pm 19.1 ENE 9 15 - - - - - - - - - -
20/08:30pm 18.5 E 6 9 - - - - - - - - - -
20/08:00pm 18.4 E 5 7 - - - - - - - - - -
20/07:30pm 18.6 E 4 6 - - - - - - - - - -
20/07:00pm 18.9 E 4 6 - - - - - - - - - -
20/06:30pm 19.6 E 2 4 - - - - - - - - - -
20/06:00pm 19.9 SSE 1 3 - - - - - - - - - -
20/05:30pm 20.5 WSW 5 9 - - - - - - - - - -
20/05:00pm 20.8 WSW 9 11 - - - - - - - - - -
20/04:30pm 20.5 WSW 9 15 - - - - - - - - - -
20/04:00pm 22.4 W 15 18 - - - - - - - - - -
20/03:44pm 22.9 W 17 21 - - - - - - - - - -
20/03:30pm 20.9 WSW 5 6 - - - - - - - - - -
20/03:00pm 23.1 WSW 5 7 - - - - - - - - - -
20/02:30pm 23.3 WNW 6 8 - - - - - - - - - -
20/02:00pm 24.9 WNW 13 15 - - - - - - - - - -
20/01:30pm 23.5 N 13 17 - - - - - - - - - -
20/01:00pm 24.0 N 11 14 - - - - - - - - - -
20/12:30pm 24.3 N 12 15 - - - - - - - - - -
20/12:00pm 24.0 N 14 18 - - - - - - - - - -
20/11:30am 24.3 N 14 16 - - - - - - - - - -
20/11:00am 23.7 N 14 17 - - - - - - - - - -
20/10:30am 23.2 N 12 16 - - - - - - - - - -
20/10:00am 23.6 N 11 15 - - - - - - - - - -
20/09:30am 24.1 N 10 17 - - - - - - - - - -
20/09:00am 24.1 N 10 15 - - - - - - - - - -
20/08:30am 23.2 NNE 2 4 - - - - - - - - - -
20/08:00am 22.8 NNE 2 4 - - - - - - - - - -
20/07:30am 22.5 ENE 1 2 - - - - - - - - - -
20/07:00am 22.2 NE 1 4 - - - - - - - - - -
20/06:30am 23.0 NE 3 4 - - - - - - - - - -
20/06:00am 22.7 NNE 3 4 - - - - - - - - - -
20/05:30am 22.6 NE 4 6 - - - - - - - - - -
20/05:00am 22.9 NNE 5 8 - - - - - - - - - -
20/04:30am 22.2 NNE 2 5 - - - - - - - - - -
20/04:00am 21.7 NE 2 4 - - - - - - - - - -
20/03:30am 21.0 CALM 0 0 - - - - - - - - - -
20/03:00am 22.0 NNE 2 3 - - - - - - - - - -
20/02:30am 21.8 ENE 2 4 - - - - - - - - - -
20/02:00am 21.3 ENE 2 3 - - - - - - - - - -
20/01:30am 21.3 E 2 2 - - - - - - - - - -
20/01:00am 20.4 E 1 3 - - - - - - - - - -
20/12:30am 21.8 CALM 0 0 - - - - - - - - - -
20/12:00am 21.9 E 1 2 - - - - - - - - - -
 
Date/Time
EDT
Temp

°C
Wind Pressure Rain
since 9am
mm
Weather Cloud Vis
km
Sea
Height
m
Swell
Dir
 
Speed
knots
Gust
knots
hPa Trend Height
m
Period
s
Dir
19/11:30pm 21.9 E 3 6 - - - - - - - - - -
19/11:00pm 22.3 E 3 5 - - - - - - - - - -
19/10:30pm 23.2 E 4 6 - - - - - - - - - -
19/10:00pm 23.7 E 4 6 - - - - - - - - - -
19/09:30pm 23.6 E 5 7 - - - - - - - - - -
19/09:00pm 23.4 E 4 6 - - - - - - - - - -
19/08:30pm 24.0 E 5 7 - - - - - - - - - -
19/08:00pm 25.0 E 5 7 - - - - - - - - - -
19/07:30pm 26.7 CALM 0 3 - - - - - - - - - -
19/07:00pm 27.1 CALM 0 0 - - - - - - - - - -
19/06:30pm 26.9 SW 3 3 - - - - - - - - - -
19/06:00pm 26.4 WSW 4 4 - - - - - - - - - -
19/05:30pm 26.3 SW 2 3 - - - - - - - - - -
19/05:00pm 25.0 WSW 5 6 - - - - - - - - - -
19/04:30pm 25.8 CALM 0 0 - - - - - - - - - -
19/04:00pm 23.8 WSW 3 4 - - - - - - - - - -
19/03:30pm 23.3 W 3 4 - - - - - - - - - -
19/03:00pm 22.0 WSW 4 5 - - - - - - - - - -
19/02:30pm 21.8 W 3 4 - - - - - - - - - -
19/02:00pm 21.6 NW 2 2 - - - - - - - - - -
19/01:30pm 20.9 CALM 0 0 - - - - - - - - - -
19/01:00pm 18.1 WSW 3 4 - - - - - - - - - -
19/12:30pm 17.4 WSW 4 4 - - - - - - - - - -
19/12:00pm 16.7 W 3 4 - - - - - - - - - -
19/11:30am 16.7 WNW 3 5 - - - - - - - - - -
19/11:00am 17.6 NNE 4 8 - - - - - - - - - -
19/10:30am 17.1 NNE 5 7 - - - - - - - - - -
19/10:00am 16.9 NE 4 7 - - - - - - - - - -
19/09:30am 15.5 NE 4 8 - - - - - - - - - -
19/09:00am 14.8 ENE 4 7 - - - - - - - - - -
19/08:30am 14.6 ENE 3 6 - - - - - - - - - -
19/08:00am 13.7 NE 2 4 - - - - - - - - - -
19/07:30am 12.7 E 2 3 - - - - - - - - - -
19/07:00am 12.1 SE 2 3 - - - - - - - - - -
19/06:30am 11.3 SE 2 2 - - - - - - - - - -

Other Formats:

Comma delimited format used in spreadsheet applications
http://www.bom.gov.au/fwo/IDV60701/IDV60701.94871.axf

JavaScript Object Notation format (JSON) in row-major order
http://www.bom.gov.au/fwo/IDV60701/IDV60701.94871.json